Kennewick, WA (99336)

4:38 PM PST on December 18, 2014 (GMT -0800)
South Kennewick | Change Station
CLOSE
Current Station
Personal Weather Station
Location: Kennewick, WA
Elevation: 577 ft
Nearby Weather Stations
Active Advisory: Air Stagnation Advisory

Elev 577 ft 46.17 °N, 119.14 °W | Updated 54 seconds ago

Haze
Haze
39.5 °F
Feels Like 40 °F
N
0.0
Wind Variable Wind from WSW
Gusts 0.0 mph

Today
High -- | Low -- °F
--% Chance of Precip.
Yesterday
High -- | Low -- °F
Precip. -- in
7:34 AM 4:11 PM
Waning Crescent, 11% visible
Pressure 30.01 in
Visibility 6.0 miles
Clouds Few 6500 ft
Mostly Cloudy 8000 ft
Overcast 9000 ft
Windchill 40 °F
Dew Point 38 °F
Humidity 93%
Rainfall 0.00 in
Snow Depth Not available.
UV 0 out of 12
Pollen .60 out of 12
Air Quality Not available.
Flu Activity Not available.
METAR KPSC 182353Z 30005KT 6SM HZ FEW065 BKN080 OVC090 05/04 A3000 RMK AO2 RAB25E34 SLP160 P0000 60000 T00500039 10050 20022 56008

More Conditions Fewer Conditions

Pressure 30.01 in
Visibility 6.0 miles
Clouds Few 6500 ft
Mostly Cloudy 8000 ft
Overcast 9000 ft
Windchill 40 °F
Dew Point 38 °F
Humidity 93%
Rainfall 0.00 in
Snow Depth Not available.
UV 0 out of 12
Pollen .60 out of 12
Air Quality Not available.
Flu Activity Not available.
METAR KPSC 182353Z 30005KT 6SM HZ FEW065 BKN080 OVC090 05/04 A3000 RMK AO2 RAB25E34 SLP160 P0000 60000 T00500039 10050 20022 56008

More Conditions Fewer Conditions

10-Day Weather Forecast

Almanac

Astronomy

Dec. 18, 2014 Rise Set
Actual Time
Civil Twilight
Nautical Twilight
Astronomical Twilight
Moon
Length of Visible Light
Length of Day
Tomorrow will be .
, % of the Moon is Illuminated

Today's Extremes

State Highs State Lows

Community

WunderPhotos

Upload Photos

1,779,016 photos uploaded!

WunderBlogs® & News

Nearby

Air Quality

  Air Quality AQ Index Pollutant
Not available.

Snow Depth

Station Depth Elevation

Earthquake Activity

City Distance Mag. Time & Date
Minimum magnitude displayed is 2.5.

Coastal Water Temperatures

Place Temperature

Nearby Weather Stations